Time;durP1;ratioP1;P1;durP2;ratioP2;P2;SDS_P1;SDS_P2;PMS_P1;PMS_P2;Temp;Humidity;BMP_temperature;BMP_pressure;BME280_temperature;BME280_humidity;BME280_pressure;Samples;Min_cycle;Max_cycle;Signal;HPM_P1;HPM_P2
2021/08/16 00:01:10;;;;;;;7.07;4.15;;;;;;;-148.56;100.00;61375.16;4999591;28;20483;-32
2021/08/16 00:04:34;;;;;;;7.60;4.13;;;;;;;-148.56;100.00;61375.16;4991725;28;20036;-31
2021/08/16 00:07:58;;;;;;;5.20;3.10;;;;;;;-148.56;100.00;61375.16;4995245;28;20500;-32
2021/08/16 00:11:22;;;;;;;5.80;3.70;;;;;;;-148.56;100.00;61375.16;4995187;28;20037;-31
2021/08/16 00:14:46;;;;;;;8.10;4.25;;;;;;;-148.56;100.00;61375.16;4996063;28;20112;-31
2021/08/16 00:18:10;;;;;;;6.45;4.03;;;;;;;-148.56;100.00;61375.16;4993461;28;20041;-31
2021/08/16 00:21:34;;;;;;;12.57;3.80;;;;;;;-148.56;100.00;61375.16;4995705;28;20038;-32
2021/08/16 00:24:58;;;;;;;5.30;4.07;;;;;;;-148.56;100.00;61375.16;4997253;28;20037;-31
2021/08/16 00:28:21;;;;;;;7.32;3.90;;;;;;;-148.56;100.00;61375.16;4996023;28;20280;-32
2021/08/16 00:31:45;;;;;;;6.45;3.85;;;;;;;-148.56;100.00;61375.16;4996553;28;20029;-31
2021/08/16 00:35:09;;;;;;;6.93;3.90;;;;;;;-148.56;100.00;61375.16;4994681;28;20145;-32
2021/08/16 00:38:33;;;;;;;4.95;3.53;;;;;;;-148.56;100.00;61375.16;4992192;28;21585;-33
2021/08/16 00:41:57;;;;;;;6.47;4.20;;;;;;;-148.56;100.00;61375.16;4993955;28;20041;-32
2021/08/16 00:45:21;;;;;;;6.38;3.80;;;;;;;-148.56;100.00;61375.16;4988722;28;20034;-31
2021/08/16 00:48:45;;;;;;;6.47;3.97;;;;;;;-148.56;100.00;61375.16;4991119;28;20029;-31
2021/08/16 00:52:09;;;;;;;6.97;4.00;;;;;;;-148.56;100.00;61375.16;4994595;28;20049;-33
2021/08/16 00:55:33;;;;;;;7.63;4.07;;;;;;;-148.56;100.00;61375.16;4983197;28;20030;-31
2021/08/16 00:58:58;;;;;;;9.40;3.70;;;;;;;-148.56;100.00;61375.16;4991814;28;20068;-30
2021/08/16 01:02:21;;;;;;;9.30;4.40;;;;;;;-148.56;100.00;61375.16;4993094;28;20100;-30
2021/08/16 01:05:45;;;;;;;6.97;3.80;;;;;;;-148.56;100.00;61375.16;4998547;28;20112;-29
2021/08/16 01:09:09;;;;;;;5.13;3.67;;;;;;;-148.56;100.00;61375.16;4995721;28;20500;-30
2021/08/16 01:12:33;;;;;;;6.60;3.90;;;;;;;-148.56;100.00;61375.16;4993394;28;20044;-31
2021/08/16 01:16:01;;;;;;;7.13;3.97;;;;;;;-148.56;100.00;61375.16;4990094;28;20423;-30
2021/08/16 01:19:26;;;;;;;4.60;3.25;;;;;;;-148.56;100.00;61375.16;4992199;28;20036;-31
2021/08/16 01:22:49;;;;;;;5.63;3.47;;;;;;;-148.56;100.00;61375.16;4992851;28;20092;-30
2021/08/16 01:26:13;;;;;;;8.80;3.47;;;;;;;-148.56;100.00;61375.16;4992496;28;20459;-35
2021/08/16 01:29:38;;;;;;;5.50;3.60;;;;;;;-148.56;100.00;61375.16;4995803;28;20026;-31
2021/08/16 01:33:02;;;;;;;7.22;3.78;;;;;;;-148.56;100.00;61375.16;4995565;28;20794;-30
2021/08/16 01:36:25;;;;;;;7.97;3.95;;;;;;;-148.56;100.00;61375.16;4992735;28;20125;-29
2021/08/16 01:39:49;;;;;;;8.32;3.78;;;;;;;-148.56;100.00;61375.16;5010691;28;20086;-31
2021/08/16 01:43:13;;;;;;;7.45;3.85;;;;;;;-148.56;100.00;61375.16;4995332;28;20026;-29
2021/08/16 01:46:37;;;;;;;5.75;3.50;;;;;;;-148.56;100.00;61375.16;4994664;28;20021;-31
2021/08/16 01:50:01;;;;;;;5.68;3.75;;;;;;;-148.56;100.00;61375.16;4991742;28;20038;-30
2021/08/16 01:53:25;;;;;;;6.68;3.50;;;;;;;-148.56;100.00;61375.16;4992155;28;20030;-32
2021/08/16 01:56:49;;;;;;;7.82;3.90;;;;;;;-148.56;100.00;61375.16;4986988;28;20058;-31
2021/08/16 02:00:13;;;;;;;5.05;3.47;;;;;;;-148.56;100.00;61375.16;4995148;28;20040;-27
2021/08/16 02:03:37;;;;;;;6.45;3.33;;;;;;;-148.56;100.00;61375.16;4991864;28;20033;-29
2021/08/16 02:07:02;;;;;;;4.60;3.22;;;;;;;-148.56;100.00;61375.16;4990737;28;20034;-30
2021/08/16 02:10:26;;;;;;;7.10;3.75;;;;;;;-148.56;100.00;61375.16;4993497;28;20030;-30
2021/08/16 02:13:50;;;;;;;6.00;3.80;;;;;;;-148.56;100.00;61375.16;4993533;28;20030;-32
2021/08/16 02:17:14;;;;;;;9.35;4.55;;;;;;;-148.56;100.00;61375.16;4990795;28;20042;-31
2021/08/16 02:20:38;;;;;;;6.90;3.53;;;;;;;-148.56;100.00;61375.16;4994409;28;20123;-31
2021/08/16 02:24:02;;;;;;;6.60;3.95;;;;;;;-148.56;100.00;61375.16;5003606;28;20120;-32
2021/08/16 02:27:26;;;;;;;7.00;3.33;;;;;;;-148.56;100.00;61375.16;4983932;28;20045;-31
2021/08/16 02:30:49;;;;;;;6.25;3.60;;;;;;;-148.56;100.00;61375.16;4995694;28;20665;-33
2021/08/16 02:34:13;;;;;;;6.70;3.47;;;;;;;-148.56;100.00;61375.16;4992564;28;20336;-29
2021/08/16 02:37:37;;;;;;;7.55;3.70;;;;;;;-148.56;100.00;61375.16;4984065;28;20623;-30
2021/08/16 02:41:02;;;;;;;6.07;3.47;;;;;;;-148.56;100.00;61375.16;4994330;28;20038;-31
2021/08/16 02:44:25;;;;;;;7.70;3.95;;;;;;;-148.56;100.00;61375.16;4990572;28;20192;-31
2021/08/16 02:47:49;;;;;;;7.35;3.63;;;;;;;-148.56;100.00;61375.16;4995539;28;20033;-34
2021/08/16 02:51:13;;;;;;;7.00;3.78;;;;;;;-148.56;100.00;61375.16;4991408;28;20036;-30
2021/08/16 02:54:37;;;;;;;6.85;3.67;;;;;;;-148.56;100.00;61375.16;4990433;28;20036;-31
2021/08/16 02:58:01;;;;;;;6.88;3.90;;;;;;;-148.56;100.00;61375.16;4996090;28;20034;-29
2021/08/16 03:01:25;;;;;;;5.00;3.80;;;;;;;-148.56;100.00;61375.16;4993565;28;20102;-30
2021/08/16 03:04:49;;;;;;;6.20;4.05;;;;;;;-148.56;100.00;61375.16;4987124;28;20033;-32
2021/08/16 03:08:12;;;;;;;5.07;3.60;;;;;;;-148.56;100.00;61375.16;4992084;28;20866;-31
2021/08/16 03:11:36;;;;;;;7.10;3.67;;;;;;;-148.56;100.00;61375.16;4995840;28;20399;-30
2021/08/16 03:15:00;;;;;;;5.25;3.70;;;;;;;-148.56;100.00;61375.16;4987569;28;20030;-31
2021/08/16 03:18:24;;;;;;;5.65;3.70;;;;;;;-148.56;100.00;61375.16;4992446;28;20021;-31
2021/08/16 03:21:48;;;;;;;4.90;3.40;;;;;;;-148.56;100.00;61375.16;4998695;28;20026;-29
2021/08/16 03:25:12;;;;;;;10.60;3.88;;;;;;;-148.56;100.00;61375.16;4994322;28;20029;-33
2021/08/16 03:28:36;;;;;;;5.38;3.80;;;;;;;-148.56;100.00;61375.16;4997175;28;20116;-31
2021/08/16 03:32:02;;;;;;;7.65;3.70;;;;;;;-148.56;100.00;61375.16;4995866;28;20105;-30
2021/08/16 03:35:26;;;;;;;5.90;3.58;;;;;;;-148.56;100.00;61375.16;4998215;28;20056;-32
2021/08/16 03:38:50;;;;;;;5.20;3.85;;;;;;;-148.56;100.00;61375.16;4999168;28;20083;-31
2021/08/16 03:42:14;;;;;;;5.40;3.45;;;;;;;-148.56;100.00;61375.16;4994994;28;20420;-33
2021/08/16 03:45:38;;;;;;;7.22;3.40;;;;;;;-148.56;100.00;61375.16;4996603;28;20079;-30
2021/08/16 03:49:02;;;;;;;5.50;3.70;;;;;;;-148.56;100.00;61375.16;5000819;28;20519;-30
2021/08/16 03:52:26;;;;;;;4.95;3.53;;;;;;;-148.56;100.00;61375.16;4992668;28;20033;-32
2021/08/16 03:55:50;;;;;;;6.32;3.58;;;;;;;-148.56;100.00;61375.16;4992841;28;20596;-29
2021/08/16 03:59:13;;;;;;;4.63;3.25;;;;;;;-148.56;100.00;61375.16;4999005;28;20037;-33
2021/08/16 04:02:40;;;;;;;7.10;3.75;;;;;;;-148.56;100.00;61375.16;4996618;28;20314;-32
2021/08/16 04:06:04;;;;;;;4.43;3.47;;;;;;;-148.56;100.00;61375.16;4995695;28;20121;-31
2021/08/16 04:09:28;;;;;;;5.45;3.60;;;;;;;-148.56;100.00;61375.16;4998319;28;20598;-31
2021/08/16 04:12:53;;;;;;;8.15;3.75;;;;;;;-148.56;100.00;61375.16;4993495;28;20544;-32
2021/08/16 04:16:17;;;;;;;5.47;3.58;;;;;;;-148.56;100.00;61375.16;4989701;28;20029;-31
2021/08/16 04:19:41;;;;;;;4.45;3.67;;;;;;;-148.56;100.00;61375.16;4993309;28;20057;-30
2021/08/16 04:23:05;;;;;;;8.18;3.80;;;;;;;-148.56;100.00;61375.16;4999546;28;20518;-31
2021/08/16 04:26:29;;;;;;;5.15;3.63;;;;;;;-148.56;100.00;61375.16;4995472;28;20477;-30
2021/08/16 04:29:53;;;;;;;5.50;3.40;;;;;;;-148.56;100.00;61375.16;4992214;28;20034;-29
2021/08/16 04:33:18;;;;;;;4.75;3.38;;;;;;;-148.56;100.00;61375.16;4992775;28;20083;-29
2021/08/16 04:36:41;;;;;;;9.98;3.35;;;;;;;-148.56;100.00;61375.16;4995830;28;20037;-31
2021/08/16 04:40:06;;;;;;;6.47;3.63;;;;;;;-148.56;100.00;61375.16;4997797;28;20455;-31
2021/08/16 04:43:29;;;;;;;4.35;3.20;;;;;;;-148.56;100.00;61375.16;4990960;28;20030;-29
2021/08/16 04:46:53;;;;;;;4.90;3.53;;;;;;;-148.56;100.00;61375.16;4992564;28;20045;-31
2021/08/16 04:50:17;;;;;;;6.13;3.67;;;;;;;-148.56;100.00;61375.16;4997063;28;20488;-31
2021/08/16 04:53:41;;;;;;;5.38;3.28;;;;;;;-148.56;100.00;61375.16;4993753;28;20065;-29
2021/08/16 04:57:05;;;;;;;7.63;3.60;;;;;;;-148.56;100.00;61375.16;4994615;28;20049;-33
2021/08/16 05:00:29;;;;;;;5.97;3.88;;;;;;;-148.56;100.00;61375.16;4995569;28;20445;-30
2021/08/16 05:03:53;;;;;;;5.75;3.45;;;;;;;-148.56;100.00;61375.16;4991080;28;20516;-31
2021/08/16 05:07:17;;;;;;;9.07;3.95;;;;;;;-148.56;100.00;61375.16;4995874;28;20437;-31
2021/08/16 05:10:41;;;;;;;5.80;3.63;;;;;;;-148.56;100.00;61375.16;4993729;28;20045;-29
2021/08/16 05:14:04;;;;;;;5.68;3.67;;;;;;;-148.56;100.00;61375.16;4991746;28;20037;-31
2021/08/16 05:17:28;;;;;;;6.70;3.60;;;;;;;-148.56;100.00;61375.16;4991342;28;20030;-28
2021/08/16 05:20:54;;;;;;;5.53;4.10;;;;;;;-148.56;100.00;61375.16;4995335;28;20412;-31
2021/08/16 05:24:17;;;;;;;5.18;3.60;;;;;;;-148.56;100.00;61375.16;4991619;28;20116;-29
2021/08/16 05:27:41;;;;;;;8.85;3.85;;;;;;;-148.56;100.00;61375.16;4991322;28;21244;-30
2021/08/16 05:31:06;;;;;;;5.70;3.58;;;;;;;-148.56;100.00;61375.16;4993677;28;22227;-29
2021/08/16 05:34:30;;;;;;;12.13;3.80;;;;;;;-148.56;100.00;61375.16;4993728;28;20484;-31
2021/08/16 05:37:55;;;;;;;5.18;3.58;;;;;;;-148.56;100.00;61375.16;4987878;28;20046;-32
2021/08/16 05:41:19;;;;;;;6.00;3.60;;;;;;;-148.56;100.00;61375.16;4991455;28;20385;-30
2021/08/16 05:44:43;;;;;;;5.53;3.58;;;;;;;-148.56;100.00;61375.16;4992552;28;20449;-31
2021/08/16 05:48:07;;;;;;;7.13;3.42;;;;;;;-148.56;100.00;61375.16;4986530;28;20037;-30
2021/08/16 05:51:30;;;;;;;8.32;3.63;;;;;;;-148.56;100.00;61375.16;4995186;28;20051;-33
2021/08/16 05:54:54;;;;;;;5.65;4.00;;;;;;;-148.56;100.00;61375.16;4992926;28;20797;-33
2021/08/16 05:58:18;;;;;;;6.75;3.78;;;;;;;-148.56;100.00;61375.16;4989775;28;20033;-30
2021/08/16 06:01:42;;;;;;;4.15;3.03;;;;;;;-148.56;100.00;61375.16;4993769;28;20065;-34
2021/08/16 06:05:06;;;;;;;4.97;3.80;;;;;;;-148.56;100.00;61375.16;4986070;28;20069;-30
2021/08/16 06:08:30;;;;;;;4.97;3.70;;;;;;;-148.56;100.00;61375.16;4998024;28;20113;-32
2021/08/16 06:11:54;;;;;;;10.02;4.43;;;;;;;-148.56;100.00;61375.16;4994470;28;20547;-30
2021/08/16 06:15:18;;;;;;;9.77;3.60;;;;;;;-148.56;100.00;61375.16;4993069;28;20065;-31
2021/08/16 06:18:41;;;;;;;9.93;3.60;;;;;;;-148.56;100.00;61375.16;4991375;28;20026;-31
2021/08/16 06:22:06;;;;;;;5.95;3.55;;;;;;;-148.56;100.00;61375.16;4993180;28;20033;-30
2021/08/16 06:25:30;;;;;;;7.05;3.67;;;;;;;-148.56;100.00;61375.16;4989335;28;20037;-36
2021/08/16 06:28:54;;;;;;;6.78;3.60;;;;;;;-148.56;100.00;61375.16;4991967;28;20037;-30
2021/08/16 06:32:17;;;;;;;6.15;3.40;;;;;;;-148.56;100.00;61375.16;4984758;28;20500;-30
2021/08/16 06:35:41;;;;;;;6.97;3.42;;;;;;;-148.56;100.00;61375.16;4986352;28;20080;-30
2021/08/16 06:39:08;;;;;;;11.90;4.05;;;;;;;-148.56;100.00;61375.16;4990264;28;20072;-31
2021/08/16 06:42:31;;;;;;;14.15;3.83;;;;;;;-148.56;100.00;61375.16;4992852;28;20544;-29
2021/08/16 06:45:55;;;;;;;11.63;3.97;;;;;;;-148.56;100.00;61375.16;4985639;28;20029;-30
2021/08/16 06:49:19;;;;;;;7.95;3.40;;;;;;;-148.56;100.00;61375.16;4990271;28;20029;-30
2021/08/16 06:52:43;;;;;;;8.40;3.65;;;;;;;-148.56;100.00;61375.16;4990650;28;20178;-30
2021/08/16 06:56:07;;;;;;;7.28;4.35;;;;;;;-148.56;100.00;61375.16;4990917;28;20111;-30
2021/08/16 06:59:34;;;;;;;7.20;3.88;;;;;;;-148.56;100.00;61375.16;4990066;28;20419;-31
2021/08/16 07:02:58;;;;;;;12.35;3.67;;;;;;;-148.56;100.00;61375.16;4983583;28;20263;-32
2021/08/16 07:06:22;;;;;;;10.02;3.80;;;;;;;-148.56;100.00;61375.16;4988922;28;20447;-31
2021/08/16 07:09:47;;;;;;;7.13;3.67;;;;;;;-148.56;100.00;61375.16;4983726;28;20030;-31
2021/08/16 07:13:10;;;;;;;8.45;3.80;;;;;;;-148.56;100.00;61375.16;4988318;28;20092;-34
2021/08/16 07:16:35;;;;;;;7.32;3.80;;;;;;;-148.56;100.00;61375.16;4989465;28;20190;-33
2021/08/16 07:19:59;;;;;;;7.95;3.70;;;;;;;-148.56;100.00;61375.16;4995313;28;20026;-32
2021/08/16 07:23:25;;;;;;;8.23;3.42;;;;;;;-148.56;100.00;61375.16;4991378;28;20232;-30
2021/08/16 07:26:50;;;;;;;5.18;3.65;;;;;;;-148.56;100.00;61375.16;4990170;28;20038;-29
2021/08/16 07:30:14;;;;;;;10.23;4.07;;;;;;;-148.56;100.00;61375.16;4986768;28;20117;-31
2021/08/16 07:33:38;;;;;;;9.13;3.28;;;;;;;-148.56;100.00;61375.16;4989280;28;20807;-33
2021/08/16 07:37:04;;;;;;;7.32;3.50;;;;;;;-148.56;100.00;61375.16;4988562;28;20057;-31
2021/08/16 07:40:28;;;;;;;6.07;3.40;;;;;;;-148.56;100.00;61375.16;4988057;28;20045;-35
2021/08/16 07:43:52;;;;;;;5.85;3.50;;;;;;;-148.56;100.00;61375.16;4991404;28;20026;-32
2021/08/16 07:47:16;;;;;;;11.55;3.97;;;;;;;-148.56;100.00;61375.16;4994264;28;20040;-33
2021/08/16 07:50:40;;;;;;;8.60;3.78;;;;;;;-148.56;100.00;61375.16;4986316;28;20113;-33
2021/08/16 07:54:04;;;;;;;7.20;3.58;;;;;;;-148.56;100.00;61375.16;4989806;28;20019;-29
2021/08/16 07:57:29;;;;;;;6.88;3.70;;;;;;;-148.56;100.00;61375.16;4988943;28;20034;-33
2021/08/16 08:00:53;;;;;;;7.85;3.80;;;;;;;-148.56;100.00;61375.16;4992250;28;20193;-32
2021/08/16 08:04:17;;;;;;;7.57;3.67;;;;;;;-148.56;100.00;61375.16;4991511;28;20034;-28
2021/08/16 08:07:41;;;;;;;6.78;4.03;;;;;;;-148.56;100.00;61375.16;4993245;28;20106;-31
2021/08/16 08:11:05;;;;;;;8.80;4.00;;;;;;;-148.56;100.00;61375.16;4993786;28;20053;-31
2021/08/16 08:14:29;;;;;;;6.75;3.92;;;;;;;-148.56;100.00;61375.16;4995938;28;20021;-30
2021/08/16 08:17:53;;;;;;;8.25;3.95;;;;;;;-148.56;100.00;61375.16;4992542;28;20022;-29
2021/08/16 08:21:17;;;;;;;7.15;3.95;;;;;;;-148.56;100.00;61375.16;4997017;28;20061;-32
2021/08/16 08:24:41;;;;;;;5.88;3.78;;;;;;;-148.56;100.00;61375.16;4996665;28;20463;-34
2021/08/16 08:28:11;;;;;;;18.13;4.50;;;;;;;-148.56;100.00;61375.16;4993022;28;20069;-35
2021/08/16 08:31:38;;;;;;;9.88;3.95;;;;;;;-148.56;100.00;61375.16;4995712;28;20034;-32
2021/08/16 08:35:02;;;;;;;6.72;3.90;;;;;;;-148.56;100.00;61375.16;4990024;28;20030;-29
2021/08/16 08:38:25;;;;;;;11.68;4.55;;;;;;;-148.56;100.00;61375.16;4995301;28;20157;-31
2021/08/16 08:41:49;;;;;;;7.28;3.78;;;;;;;-148.56;100.00;61375.16;4991084;28;20062;-33
2021/08/16 08:45:13;;;;;;;9.52;4.00;;;;;;;-148.56;100.00;61375.16;4983878;28;20034;-32
2021/08/16 08:48:37;;;;;;;8.63;4.10;;;;;;;-148.56;100.00;61375.16;4986574;28;20029;-33
2021/08/16 08:52:01;;;;;;;8.63;3.92;;;;;;;-148.56;100.00;61375.16;4980492;28;20037;-30
2021/08/16 08:55:28;;;;;;;6.82;3.97;;;;;;;-148.56;100.00;61375.16;4992013;28;20602;-27
2021/08/16 08:58:53;;;;;;;7.45;3.92;;;;;;;-148.56;100.00;61375.16;4992842;28;20107;-29
2021/08/16 09:02:17;;;;;;;8.45;4.13;;;;;;;-148.56;100.00;61375.16;4985412;28;20386;-29
2021/08/16 09:05:54;;;;;;;6.72;3.70;;;;;;;-148.56;100.00;61375.16;4988021;28;20550;-35
2021/08/16 09:09:22;;;;;;;9.20;3.88;;;;;;;-148.56;100.00;61375.16;4975100;28;20026;-32
2021/08/16 09:12:46;;;;;;;6.80;3.90;;;;;;;-148.56;100.00;61375.16;4991789;28;23138;-32
2021/08/16 09:16:13;;;;;;;8.65;4.00;;;;;;;-148.56;100.00;61375.16;4994257;28;20459;-30
2021/08/16 09:19:41;;;;;;;8.38;3.72;;;;;;;-148.56;100.00;61375.16;4995593;28;20488;-31
2021/08/16 09:23:06;;;;;;;7.68;3.42;;;;;;;-148.56;100.00;61375.16;4996122;28;20536;-32
2021/08/16 09:26:32;;;;;;;7.18;4.20;;;;;;;-148.56;100.00;61375.16;4995196;28;20428;-29
2021/08/16 09:30:15;;;;;;;8.25;4.20;;;;;;;-148.56;100.00;61375.16;4997154;28;20117;-32
2021/08/16 09:33:39;;;;;;;7.75;4.40;;;;;;;-148.56;100.00;61375.16;4995757;28;20030;-31
2021/08/16 09:37:24;;;;;;;9.50;4.30;;;;;;;-148.56;100.00;61375.16;4983443;28;20028;-31
2021/08/16 09:40:58;;;;;;;12.15;3.85;;;;;;;-148.56;100.00;61375.16;4996017;28;20029;-33
2021/08/16 09:44:28;;;;;;;8.35;4.07;;;;;;;-148.56;100.00;61375.16;4993796;28;20026;-32
2021/08/16 09:48:02;;;;;;;7.22;4.22;;;;;;;-148.56;100.00;61375.16;4996038;28;20048;-31
2021/08/16 09:51:42;;;;;;;6.38;4.00;;;;;;;-148.56;100.00;61375.16;4996079;28;20026;-35
2021/08/16 09:55:06;;;;;;;9.60;4.25;;;;;;;-148.56;100.00;61375.16;4994898;28;20384;-33
2021/08/16 09:58:31;;;;;;;10.50;4.07;;;;;;;-148.56;100.00;61375.16;4991341;28;20022;-35
2021/08/16 10:01:54;;;;;;;8.73;4.45;;;;;;;-148.56;100.00;61375.16;4993615;28;20228;-33
2021/08/16 10:05:19;;;;;;;6.82;4.07;;;;;;;-148.56;100.00;61375.16;4989957;28;20538;-33
2021/08/16 10:08:44;;;;;;;8.68;4.30;;;;;;;-148.56;100.00;61375.16;4995041;28;20148;-31
2021/08/16 10:12:11;;;;;;;7.15;3.92;;;;;;;-148.56;100.00;61375.16;4984471;28;20675;-30
2021/08/16 10:15:37;;;;;;;9.30;4.22;;;;;;;-148.56;100.00;61375.16;4992196;28;20376;-31
2021/08/16 10:19:03;;;;;;;6.47;3.42;;;;;;;-148.56;100.00;61375.16;4988053;28;20057;-31
2021/08/16 10:22:28;;;;;;;7.57;4.30;;;;;;;-148.56;100.00;61375.16;4990629;28;20107;-30
2021/08/16 10:25:53;;;;;;;5.53;3.47;;;;;;;-148.56;100.00;61375.16;4989620;28;20034;-30
2021/08/16 10:29:22;;;;;;;8.43;4.00;;;;;;;-148.56;100.00;61375.16;4994521;28;20057;-30
2021/08/16 10:32:46;;;;;;;7.32;4.00;;;;;;;-148.56;100.00;61375.16;4995015;28;20360;-31
2021/08/16 10:36:17;;;;;;;5.85;3.83;;;;;;;-148.56;100.00;61375.16;4994853;28;20076;-32
2021/08/16 10:39:45;;;;;;;7.30;3.97;;;;;;;-148.56;100.00;61375.16;4993782;28;20058;-31
2021/08/16 10:43:10;;;;;;;7.35;3.85;;;;;;;-148.56;100.00;61375.16;4997445;28;20029;-30
2021/08/16 10:46:40;;;;;;;7.95;3.70;;;;;;;-148.56;100.00;61375.16;4991985;28;20037;-30
2021/08/16 10:50:18;;;;;;;10.02;4.03;;;;;;;-148.56;100.00;61375.16;4995167;28;20124;-32
2021/08/16 10:53:49;;;;;;;6.88;3.80;;;;;;;-148.56;100.00;61375.16;4991531;28;20119;-30
2021/08/16 10:57:20;;;;;;;7.05;4.07;;;;;;;-148.56;100.00;61375.16;4981688;28;22172;-32
2021/08/16 11:00:44;;;;;;;9.82;3.53;;;;;;;-148.56;100.00;61375.16;4987427;28;20045;-28
2021/08/16 11:04:13;;;;;;;8.38;3.95;;;;;;;-148.56;100.00;61375.16;4982118;28;20084;-32
2021/08/16 11:07:39;;;;;;;7.10;3.78;;;;;;;-148.56;100.00;61375.16;4989807;28;20049;-29
2021/08/16 11:11:05;;;;;;;8.45;4.13;;;;;;;-148.56;100.00;61375.16;4992836;28;20034;-29
2021/08/16 11:14:29;;;;;;;6.47;3.53;;;;;;;-148.56;100.00;61375.16;4985798;28;20079;-28
2021/08/16 11:17:53;;;;;;;8.20;3.83;;;;;;;-148.56;100.00;61375.16;4987019;28;20030;-33
2021/08/16 11:21:20;;;;;;;9.27;4.00;;;;;;;-148.56;100.00;61375.16;4990362;28;20044;-34
2021/08/16 11:24:53;;;;;;;7.32;3.47;;;;;;;-148.56;100.00;61375.16;4989097;28;20057;-33
2021/08/16 11:28:18;;;;;;;5.65;3.25;;;;;;;-148.56;100.00;61375.16;5000120;28;20496;-31
2021/08/16 11:31:42;;;;;;;11.48;4.10;;;;;;;-148.56;100.00;61375.16;4990329;28;20042;-35
2021/08/16 11:35:07;;;;;;;4.80;3.33;;;;;;;-148.56;100.00;61375.16;4989540;28;20037;-29
2021/08/16 11:38:31;;;;;;;6.20;3.50;;;;;;;-148.56;100.00;61375.16;4988584;28;20036;-29
2021/08/16 11:42:06;;;;;;;7.13;3.67;;;;;;;-148.56;100.00;61375.16;4984359;28;20038;-33
2021/08/16 11:45:37;;;;;;;11.27;3.28;;;;;;;-148.56;100.00;61375.16;4998284;28;20033;-31
2021/08/16 11:49:01;;;;;;;6.65;3.40;;;;;;;-148.56;100.00;61375.16;4993028;28;20053;-31
2021/08/16 11:52:29;;;;;;;10.60;3.90;;;;;;;-148.56;100.00;61375.16;4985901;28;20680;-31
2021/08/16 11:56:03;;;;;;;6.60;3.45;;;;;;;-148.56;100.00;61375.16;4991624;28;20612;-30
2021/08/16 11:59:37;;;;;;;7.22;3.65;;;;;;;-148.56;100.00;61375.16;4988897;28;20176;-31
2021/08/16 12:03:02;;;;;;;8.30;3.63;;;;;;;-148.56;100.00;61375.16;4991810;28;20034;-31
2021/08/16 12:06:26;;;;;;;10.60;3.47;;;;;;;-148.56;100.00;61375.16;4996634;28;20385;-31
2021/08/16 12:10:00;;;;;;;6.03;3.60;;;;;;;-148.56;100.00;61375.16;4994441;28;20037;-30
2021/08/16 12:13:27;;;;;;;5.25;3.08;;;;;;;-148.56;100.00;61375.16;4992591;28;20033;-32
2021/08/16 12:16:51;;;;;;;6.97;3.63;;;;;;;-148.56;100.00;61375.16;4993034;28;20428;-33
2021/08/16 12:20:15;;;;;;;4.72;3.20;;;;;;;-148.56;100.00;61375.16;4990515;28;20715;-31
2021/08/16 12:23:52;;;;;;;5.70;3.28;;;;;;;-148.56;100.00;61375.16;4987972;28;20044;-30
2021/08/16 12:27:26;;;;;;;9.10;4.13;;;;;;;-148.56;100.00;61375.16;4991980;28;20129;-33
2021/08/16 12:30:50;;;;;;;6.00;3.78;;;;;;;-148.56;100.00;61375.16;4987806;28;20030;-34
2021/08/16 12:34:14;;;;;;;7.65;3.33;;;;;;;-148.56;100.00;61375.16;4992360;28;20033;-31
2021/08/16 12:37:39;;;;;;;5.85;3.50;;;;;;;-148.56;100.00;61375.16;4992276;28;20423;-32
2021/08/16 12:41:12;;;;;;;6.32;3.75;;;;;;;-148.56;100.00;61375.16;4989564;28;20650;-29
2021/08/16 12:44:43;;;;;;;4.80;3.38;;;;;;;-148.56;100.00;61375.16;4993062;28;20044;-36
2021/08/16 12:48:07;;;;;;;5.72;3.13;;;;;;;-148.56;100.00;61375.16;4993470;28;20034;-31
2021/08/16 12:51:32;;;;;;;5.15;3.42;;;;;;;-148.56;100.00;61375.16;4993501;28;20030;-30
2021/08/16 12:54:57;;;;;;;5.25;3.40;;;;;;;-148.56;100.00;61375.16;4992397;28;20065;-30
2021/08/16 12:58:21;;;;;;;7.97;3.75;;;;;;;-148.56;100.00;61375.16;4986648;28;20036;-29
2021/08/16 13:01:48;;;;;;;5.07;3.33;;;;;;;-148.56;100.00;61375.16;4989885;28;20045;-28
2021/08/16 13:05:12;;;;;;;17.48;9.27;;;;;;;-148.56;100.00;61375.16;4987704;28;20140;-29
2021/08/16 13:08:35;;;;;;;186.77;72.20;;;;;;;-148.56;100.00;61375.16;4991910;28;20076;-30
2021/08/16 13:12:00;;;;;;;402.40;176.18;;;;;;;-148.56;100.00;61375.16;4991800;28;20053;-32
2021/08/16 13:15:24;;;;;;;348.25;142.93;;;;;;;-148.56;100.00;61375.16;4994686;28;20113;-31
2021/08/16 13:18:48;;;;;;;317.88;139.52;;;;;;;-148.56;100.00;61375.16;4989718;28;20064;-27
2021/08/16 13:22:12;;;;;;;242.40;105.28;;;;;;;-148.56;100.00;61375.16;4991539;28;20037;-30
2021/08/16 13:25:36;;;;;;;203.43;93.85;;;;;;;-148.56;100.00;61375.16;4991658;28;20037;-30
2021/08/16 13:29:00;;;;;;;266.95;117.47;;;;;;;-148.56;100.00;61375.16;4994786;28;20413;-29
2021/08/16 13:32:24;;;;;;;516.40;282.65;;;;;;;-148.56;100.00;61375.16;4993851;28;20475;-29
2021/08/16 13:35:47;;;;;;;356.67;158.40;;;;;;;-148.56;100.00;61375.16;4993943;28;20196;-30
2021/08/16 13:39:11;;;;;;;312.67;141.73;;;;;;;-148.56;100.00;61375.16;4989257;28;20065;-30
2021/08/16 13:42:37;;;;;;;465.45;236.85;;;;;;;-148.56;100.00;61375.16;4989168;28;20064;-33
2021/08/16 13:46:01;;;;;;;79.57;37.63;;;;;;;-148.56;100.00;61375.16;4986489;28;20537;-32
2021/08/16 13:49:24;;;;;;;19.42;9.93;;;;;;;-148.56;100.00;61375.16;4991403;28;20136;-30
2021/08/16 13:52:49;;;;;;;10.93;6.15;;;;;;;-148.56;100.00;61375.16;4988502;28;20571;-32
2021/08/16 13:56:13;;;;;;;24.38;10.93;;;;;;;-148.56;100.00;61375.16;4988797;28;20033;-28
2021/08/16 13:59:36;;;;;;;24.35;11.77;;;;;;;-148.56;100.00;61375.16;4985660;28;20684;-27
2021/08/16 14:03:01;;;;;;;36.63;18.20;;;;;;;-148.56;100.00;61375.16;4993588;28;20036;-27
2021/08/16 14:06:25;;;;;;;19.15;10.70;;;;;;;-148.56;100.00;61375.16;4993744;28;20056;-29
2021/08/16 14:09:49;;;;;;;19.92;10.38;;;;;;;-148.56;100.00;61375.16;4994754;28;20025;-30
2021/08/16 14:13:13;;;;;;;16.67;8.55;;;;;;;-148.56;100.00;61375.16;4988780;28;20030;-29
2021/08/16 14:16:37;;;;;;;13.85;8.23;;;;;;;-148.56;100.00;61375.16;4979934;28;20096;-28
2021/08/16 14:20:01;;;;;;;13.43;7.13;;;;;;;-148.56;100.00;61375.16;4993199;28;20053;-30
2021/08/16 14:23:25;;;;;;;13.65;6.47;;;;;;;-148.56;100.00;61375.16;4984945;28;20523;-29
2021/08/16 14:26:49;;;;;;;10.35;4.90;;;;;;;-148.56;100.00;61375.16;4987987;28;20041;-31
2021/08/16 14:30:13;;;;;;;10.35;3.80;;;;;;;-148.56;100.00;61375.16;4990802;28;20040;-29
2021/08/16 14:33:36;;;;;;;7.13;3.53;;;;;;;-148.56;100.00;61375.16;4990274;28;20040;-29
2021/08/16 14:37:00;;;;;;;7.18;4.03;;;;;;;-148.56;100.00;61375.16;4990124;28;20313;-27
2021/08/16 14:40:24;;;;;;;6.63;3.67;;;;;;;-148.56;100.00;61375.16;4988041;28;20034;-29
2021/08/16 14:43:48;;;;;;;6.97;3.97;;;;;;;-148.56;100.00;61375.16;4996072;28;20045;-29
2021/08/16 14:47:12;;;;;;;6.70;3.58;;;;;;;-148.56;100.00;61375.16;4989067;28;20400;-27
2021/08/16 14:50:36;;;;;;;7.22;3.67;;;;;;;-148.56;100.00;61375.16;4990036;28;20037;-29
2021/08/16 14:54:00;;;;;;;10.57;4.97;;;;;;;-148.56;100.00;61375.16;4984593;28;20076;-29
2021/08/16 14:57:24;;;;;;;11.02;6.28;;;;;;;-148.56;100.00;61375.16;4994380;28;20030;-28
2021/08/16 15:00:48;;;;;;;11.10;5.38;;;;;;;-148.56;100.00;61375.16;4985745;28;20068;-33
2021/08/16 15:04:12;;;;;;;11.98;5.20;;;;;;;-148.56;100.00;61375.16;4975372;28;20397;-28
2021/08/16 15:07:36;;;;;;;12.63;6.15;;;;;;;-148.56;100.00;61375.16;4991453;28;20121;-31
2021/08/16 15:11:04;;;;;;;17.00;6.22;;;;;;;-148.56;100.00;61375.16;4992548;28;20488;-28
2021/08/16 15:14:28;;;;;;;21.40;7.78;;;;;;;-148.56;100.00;61375.16;4993716;28;20056;-29
2021/08/16 15:17:53;;;;;;;14.27;6.72;;;;;;;-148.56;100.00;61375.16;5005542;28;20053;-29
2021/08/16 15:21:17;;;;;;;10.07;5.32;;;;;;;-148.56;100.00;61375.16;4999674;28;20623;-28
2021/08/16 15:24:41;;;;;;;13.85;6.18;;;;;;;-148.56;100.00;61375.16;4999189;28;20119;-28
2021/08/16 15:28:04;;;;;;;11.93;5.57;;;;;;;-148.56;100.00;61375.16;4993861;28;20037;-29